Minot AFB, ND

5:24 PM CST on December 06, 2016 (GMT -0600)
| | Change Station
Active Advisory: Blizzard Warning Active Notice: Local Storm Report

Elev -9999 ft 0.00 °N, 0.00 °E | Updated

Partly Cloudy
Partly Cloudy
5 °F
Feels Like -19 °F
N
31
Wind Variable Wind from NW
Gusts 45 mph

Today
High -- | Low -- °F
--% Chance of Precip.
Yesterday
High -- | Low -- °F
Precip. -- in
Pressure 30.01 in
Visibility 0.5 miles
Clouds Few 3400 ft
Overcast 6000 ft
Windchill -19 °F
Dew Point 1 °F
Humidity 83%
Rainfall --
Snow Depth Not available.
8:22 AM 4:50 PM
Waxing Crescent, 46% visible
METAR KMOT 062254Z AUTO 28029G37KT 1/2SM -SN FZFG FEW034 OVC060 M14/M16 A2989 RMK AO2 PK WND 28039/2227 SLP160 P0000 T11391161
Pressure 30.01 in
Visibility 0.5 miles
Clouds Few 3400 ft
Overcast 6000 ft
Windchill -19 °F
Dew Point 1 °F
Humidity 83%
Rainfall --
Snow Depth Not available.
8:22 AM 4:50 PM
Waxing Crescent, 46% visible
METAR KMOT 062254Z AUTO 28029G37KT 1/2SM -SN FZFG FEW034 OVC060 M14/M16 A2989 RMK AO2 PK WND 28039/2227 SLP160 P0000 T11391161

10-Day Weather Forecast

Almanac

Astronomy

Dec. 06, 2016 Rise Set
Actual Time
Civil Twilight
Nautical Twilight
Astronomical Twilight
Moon
Length of Visible Light
Length of Day
Tomorrow will be .
, % of the Moon is Illuminated

Today's Extremes

State Highs State Lows

Community

WunderPhotos

Upload Photos

1,956,044 photos uploaded!

WunderBlog® & News

Nearby

Air Quality

  Air Quality AQ Index Pollutant
Not available.

Snow Depth

Station Depth Elevation

Earthquake Activity

City Distance Mag. Time & Date
Minimum magnitude displayed is 2.5.

Coastal Water Temperatures

Place Temperature

Stations

Nearby Weather Stations

Station Location Temp. Windchill Dew Point Humidity Wind Precip. Elev Updated Type
                   

Watches & Warnings

Blizzard Warning
Issued: 1:34 PM CST Dec. 6, 2016 – National Weather Service

... Blizzard Warning now in effect until midnight CST tonight...

* timing... through late this evening.

* Winds/visibility... gusts to 55 mph with near zero visibilities
in blowing snow. Visibilities will be worst in rural areas.

* Impacts... dangerous... if not impossible travel.

* Wind chills... to 20 below zero.

Precautionary/preparedness actions...

A Blizzard Warning means severe winter weather conditions are
expected or occurring. Falling and blowing snow with strong winds
and poor visibilities are likely. This will lead to whiteout
conditions... making travel extremely dangerous. Do not travel. If
you must travel... have a winter survival kit with you. If you get
stranded... stay with your vehicle.